Time;durP1;ratioP1;P1;durP2;ratioP2;P2;SDS_P1;SDS_P2;PMS_P1;PMS_P2;Temp;Humidity;BMP_temperature;BMP_pressure;BME280_temperature;BME280_humidity;BME280_pressure;Samples;Min_cycle;Max_cycle;Signal;HPM_P1;HPM_P2
2022/01/03 00:01:12;;;;;;;2.13;1.92;;;;;;;;;;5033976;28;20475;-28
2022/01/03 00:03:38;;;;;;;1.98;1.70;;;;;;;;;;5033992;28;20053;-28
2022/01/03 00:06:04;;;;;;;2.65;1.58;;;;;;;;;;5034011;28;20486;-28
2022/01/03 00:08:31;;;;;;;3.58;1.65;;;;;;;;;;5033986;28;20110;-28
2022/01/03 00:10:57;;;;;;;1.50;1.40;;;;;;;;;;5034249;28;20072;-28
2022/01/03 00:13:24;;;;;;;1.50;1.40;;;;;;;;;;5033774;28;20029;-28
2022/01/03 00:15:52;;;;;;;1.67;1.50;;;;;;;;;;5033883;28;20021;-28
2022/01/03 00:18:19;;;;;;;2.25;2.05;;;;;;;;;;5033883;28;20075;-28
2022/01/03 00:20:52;;;;;;;4.82;2.42;;;;;;;;;;5033888;28;20029;-29
2022/01/03 00:23:21;;;;;;;2.55;2.03;;;;;;;;;;5036848;28;20021;-29
2022/01/03 00:25:51;;;;;;;2.53;1.90;;;;;;;;;;5037375;28;20029;-28
2022/01/03 00:28:34;;;;;;;1.60;1.50;;;;;;;;;;5037352;28;20032;-28
2022/01/03 00:31:01;;;;;;;2.05;1.63;;;;;;;;;;5037625;28;20029;-28
2022/01/03 00:33:27;;;;;;;1.50;1.40;;;;;;;;;;5037129;28;20054;-28
2022/01/03 00:35:55;;;;;;;1.30;1.20;;;;;;;;;;5037237;28;20075;-28
2022/01/03 00:38:22;;;;;;;1.40;1.30;;;;;;;;;;5037165;28;20112;-28
2022/01/03 00:40:49;;;;;;;1.55;1.45;;;;;;;;;;5037169;28;20026;-28
2022/01/03 00:43:18;;;;;;;5.85;4.55;;;;;;;;;;5037239;28;20033;-28
2022/01/03 00:45:45;;;;;;;1.77;1.67;;;;;;;;;;5037065;28;20108;-28
2022/01/03 00:48:12;;;;;;;1.70;1.60;;;;;;;;;;5036961;28;20037;-28
2022/01/03 00:50:39;;;;;;;1.65;1.45;;;;;;;;;;5037183;28;20022;-28
2022/01/03 00:53:06;;;;;;;2.08;1.52;;;;;;;;;;5036863;28;20032;-28
2022/01/03 00:55:32;;;;;;;1.65;1.40;;;;;;;;;;5036810;28;20342;-28
2022/01/03 00:58:01;;;;;;;2.38;1.80;;;;;;;;;;5036752;28;20021;-28
2022/01/03 01:00:30;;;;;;;2.10;1.90;;;;;;;;;;5036963;28;20334;-28
2022/01/03 01:03:09;;;;;;;2.08;1.60;;;;;;;;;;5036536;28;20104;-28
2022/01/03 01:05:47;;;;;;;1.52;1.42;;;;;;;;;;5019108;28;20473;-28
2022/01/03 01:08:18;;;;;;;1.80;1.50;;;;;;;;;;5036959;28;20025;-28
2022/01/03 01:10:45;;;;;;;2.13;1.92;;;;;;;;;;5036545;28;20112;-28
2022/01/03 01:13:12;;;;;;;1.50;1.40;;;;;;;;;;5036494;28;20033;-28
2022/01/03 01:15:39;;;;;;;2.10;1.88;;;;;;;;;;5036501;28;20032;-28
2022/01/03 01:18:06;;;;;;;2.28;2.00;;;;;;;;;;5036698;28;20038;-28
2022/01/03 01:20:33;;;;;;;1.50;1.40;;;;;;;;;;5036365;28;20032;-28
2022/01/03 01:22:59;;;;;;;2.40;1.67;;;;;;;;;;5036289;28;20026;-28
2022/01/03 01:27:46;;;;;;;1.58;1.30;;;;;;;;;;5036622;28;20029;-28
2022/01/03 01:28:13;;;;;;;1.02;0.98;;;;;;;;;;5036200;28;20038;-28
2022/01/03 01:30:40;;;;;;;2.35;1.30;;;;;;;;;;5036237;28;20033;-28
2022/01/03 01:33:16;;;;;;;4.10;1.67;;;;;;;;;;5035318;28;20100;-28
2022/01/03 01:35:46;;;;;;;2.83;1.73;;;;;;;;;;5036406;28;20338;-28
2022/01/03 01:38:17;;;;;;;1.58;1.30;;;;;;;;;;5036078;28;20037;-28
2022/01/03 01:40:45;;;;;;;2.25;1.85;;;;;;;;;;5036289;28;20033;-28
2022/01/03 01:43:12;;;;;;;1.50;1.40;;;;;;;;;;5036123;28;20036;-29
2022/01/03 01:45:40;;;;;;;1.60;1.27;;;;;;;;;;5035822;28;20082;-28
2022/01/03 01:48:08;;;;;;;1.67;1.48;;;;;;;;;;5036119;28;20063;-28
2022/01/03 01:50:36;;;;;;;1.55;1.40;;;;;;;;;;5018347;28;20464;-28
2022/01/03 01:53:05;;;;;;;1.52;1.42;;;;;;;;;;5035605;28;20465;-28
2022/01/03 01:55:32;;;;;;;1.85;1.65;;;;;;;;;;5035990;28;20052;-28
2022/01/03 01:58:05;;;;;;;2.67;1.85;;;;;;;;;;5035879;28;20112;-28
2022/01/03 02:00:33;;;;;;;1.48;1.38;;;;;;;;;;5035598;28;20026;-28
2022/01/03 02:03:18;;;;;;;1.95;1.67;;;;;;;;;;5035742;28;20017;-28
2022/01/03 02:05:48;;;;;;;2.28;1.45;;;;;;;;;;5035342;28;20072;-28
2022/01/03 02:08:24;;;;;;;2.63;1.63;;;;;;;;;;5036269;28;20017;-28
2022/01/03 02:10:56;;;;;;;1.63;1.52;;;;;;;;;;5035465;28;20032;-28
2022/01/03 02:13:23;;;;;;;1.58;1.45;;;;;;;;;;5035273;28;20037;-28
2022/01/03 02:15:58;;;;;;;1.55;1.45;;;;;;;;;;5035324;28;20044;-28
2022/01/03 02:18:25;;;;;;;2.78;1.58;;;;;;;;;;5035615;28;20441;-28
2022/01/03 02:20:52;;;;;;;2.83;1.60;;;;;;;;;;5035520;28;20021;-28
2022/01/03 02:23:18;;;;;;;2.80;1.20;;;;;;;;;;5035385;28;20045;-28
2022/01/03 02:25:44;;;;;;;4.05;1.75;;;;;;;;;;5035426;28;20025;-28
2022/01/03 02:28:10;;;;;;;1.60;1.50;;;;;;;;;;5035437;28;20044;-28
2022/01/03 02:30:37;;;;;;;2.72;1.83;;;;;;;;;;5035064;28;20060;-28
2022/01/03 02:33:04;;;;;;;2.42;1.52;;;;;;;;;;5034873;28;20052;-28
2022/01/03 02:35:34;;;;;;;3.13;1.90;;;;;;;;;;5034984;28;20361;-28
2022/01/03 02:38:00;;;;;;;2.47;1.92;;;;;;;;;;5034940;28;20025;-29
2022/01/03 02:40:26;;;;;;;2.53;1.60;;;;;;;;;;5035172;28;20408;-28
2022/01/03 02:42:53;;;;;;;1.38;1.27;;;;;;;;;;5035147;28;20444;-28
2022/01/03 02:45:20;;;;;;;2.00;1.35;;;;;;;;;;5034899;28;20069;-28
2022/01/03 02:47:48;;;;;;;1.60;1.50;;;;;;;;;;5034828;28;20056;-28
2022/01/03 02:50:16;;;;;;;1.58;1.42;;;;;;;;;;5034788;28;20026;-28
2022/01/03 02:52:43;;;;;;;1.67;1.48;;;;;;;;;;5017503;28;20041;-28
2022/01/03 02:55:10;;;;;;;1.67;1.55;;;;;;;;;;5034566;28;20025;-28
2022/01/03 02:57:41;;;;;;;1.58;1.33;;;;;;;;;;5034926;28;20021;-28
2022/01/03 03:00:09;;;;;;;2.30;1.92;;;;;;;;;;5034878;28;20341;-28
2022/01/03 03:02:36;;;;;;;1.60;1.40;;;;;;;;;;5034819;28;20039;-28
2022/01/03 03:05:03;;;;;;;1.98;1.45;;;;;;;;;;5034386;28;20052;-28
2022/01/03 03:07:30;;;;;;;3.33;1.90;;;;;;;;;;5034520;28;20029;-28
2022/01/03 03:09:57;;;;;;;4.53;1.90;;;;;;;;;;5034541;28;20057;-29
2022/01/03 03:12:24;;;;;;;1.73;1.40;;;;;;;;;;5034464;28;20409;-28
2022/01/03 03:14:50;;;;;;;3.05;1.83;;;;;;;;;;5035190;28;20117;-28
2022/01/03 03:17:20;;;;;;;3.00;1.58;;;;;;;;;;5034695;28;20029;-29
2022/01/03 03:19:50;;;;;;;2.33;2.00;;;;;;;;;;5034734;28;20468;-28
2022/01/03 03:22:16;;;;;;;2.47;1.80;;;;;;;;;;5034530;28;20030;-28
2022/01/03 03:24:43;;;;;;;2.92;1.88;;;;;;;;;;5034392;28;20029;-28
2022/01/03 03:27:09;;;;;;;2.05;1.83;;;;;;;;;;5034327;28;20048;-28
2022/01/03 03:29:35;;;;;;;3.00;1.98;;;;;;;;;;5034363;28;20125;-28
2022/01/03 03:32:02;;;;;;;4.10;2.20;;;;;;;;;;5034235;28;20040;-28
2022/01/03 03:34:28;;;;;;;2.33;1.77;;;;;;;;;;5034236;28;20396;-28
2022/01/03 03:36:54;;;;;;;1.65;1.52;;;;;;;;;;5034595;28;20324;-28
2022/01/03 03:39:21;;;;;;;3.40;1.65;;;;;;;;;;5034276;28;20040;-28
2022/01/03 03:41:47;;;;;;;2.22;1.70;;;;;;;;;;5034488;28;20452;-28
2022/01/03 03:44:13;;;;;;;1.40;1.30;;;;;;;;;;5034162;28;20033;-28
2022/01/03 03:46:39;;;;;;;2.72;1.58;;;;;;;;;;5034468;28;20121;-28
2022/01/03 03:49:06;;;;;;;2.40;2.20;;;;;;;;;;5034209;28;20084;-28
2022/01/03 03:51:38;;;;;;;1.60;1.27;;;;;;;;;;5034103;28;20468;-28
2022/01/03 03:54:05;;;;;;;3.75;1.85;;;;;;;;;;5033989;28;20091;-28
2022/01/03 03:56:31;;;;;;;2.50;1.48;;;;;;;;;;5034455;28;20041;-28
2022/01/03 03:58:58;;;;;;;1.77;1.55;;;;;;;;;;5037940;28;20083;-28
2022/01/03 04:01:24;;;;;;;2.00;1.58;;;;;;;;;;5037890;28;20026;-28
2022/01/03 04:03:50;;;;;;;2.33;1.73;;;;;;;;;;5037668;28;20080;-28
2022/01/03 04:06:17;;;;;;;1.70;1.52;;;;;;;;;;5037845;28;20465;-28
2022/01/03 04:08:45;;;;;;;1.90;1.70;;;;;;;;;;5037787;28;20040;-28
2022/01/03 04:11:13;;;;;;;2.00;1.70;;;;;;;;;;5038466;28;20040;-28
2022/01/03 04:13:40;;;;;;;1.98;1.77;;;;;;;;;;5037792;28;20034;-28
2022/01/03 04:16:06;;;;;;;3.33;2.08;;;;;;;;;;5037650;28;20022;-28
2022/01/03 04:18:32;;;;;;;2.83;2.42;;;;;;;;;;5037538;28;20029;-28
2022/01/03 04:20:59;;;;;;;2.58;1.90;;;;;;;;;;5037798;28;20441;-28
2022/01/03 04:23:26;;;;;;;4.30;2.47;;;;;;;;;;5019975;28;20526;-28
2022/01/03 04:25:52;;;;;;;2.10;1.73;;;;;;;;;;5037441;28;20040;-28
2022/01/03 04:28:19;;;;;;;3.38;2.03;;;;;;;;;;5037666;28;20030;-28
2022/01/03 04:30:46;;;;;;;3.83;2.08;;;;;;;;;;5037597;28;20037;-28
2022/01/03 04:33:12;;;;;;;3.70;1.65;;;;;;;;;;5019769;28;20037;-28
2022/01/03 04:35:38;;;;;;;3.25;2.03;;;;;;;;;;5037240;28;20037;-28
2022/01/03 04:38:05;;;;;;;3.13;1.77;;;;;;;;;;5019776;28;20021;-28
2022/01/03 04:40:32;;;;;;;1.85;1.75;;;;;;;;;;5037416;28;20026;-28
2022/01/03 04:42:59;;;;;;;2.58;1.85;;;;;;;;;;5037273;28;20029;-28
2022/01/03 04:45:25;;;;;;;2.97;1.63;;;;;;;;;;5037089;28;20025;-28
2022/01/03 04:47:51;;;;;;;2.35;1.83;;;;;;;;;;5036980;28;20052;-28
2022/01/03 04:50:17;;;;;;;2.60;1.85;;;;;;;;;;5037135;28;20026;-28
2022/01/03 04:52:43;;;;;;;4.03;1.83;;;;;;;;;;5036832;28;20027;-28
2022/01/03 04:55:10;;;;;;;2.00;1.67;;;;;;;;;;5036987;28;20060;-28
2022/01/03 04:57:36;;;;;;;4.00;1.88;;;;;;;;;;5037032;28;20049;-28
2022/01/03 05:00:03;;;;;;;2.35;1.88;;;;;;;;;;5036740;28;20026;-28
2022/01/03 05:02:29;;;;;;;3.33;1.52;;;;;;;;;;5036817;28;20037;-28
2022/01/03 05:04:55;;;;;;;3.28;2.15;;;;;;;;;;5036579;28;20473;-28
2022/01/03 05:07:21;;;;;;;1.70;1.60;;;;;;;;;;5036594;28;20456;-28
2022/01/03 05:09:47;;;;;;;2.67;1.90;;;;;;;;;;5036638;28;20059;-28
2022/01/03 05:12:14;;;;;;;2.28;1.88;;;;;;;;;;5036383;28;20022;-28
2022/01/03 05:14:40;;;;;;;3.17;1.88;;;;;;;;;;5036439;28;20036;-28
2022/01/03 05:17:07;;;;;;;2.95;1.98;;;;;;;;;;5036516;28;20366;-28
2022/01/03 05:19:33;;;;;;;3.08;1.85;;;;;;;;;;5036399;28;20022;-28
2022/01/03 05:21:59;;;;;;;4.60;1.95;;;;;;;;;;5036568;28;20041;-28
2022/01/03 05:24:25;;;;;;;2.78;1.73;;;;;;;;;;5036336;28;20021;-28
2022/01/03 05:26:51;;;;;;;2.35;2.08;;;;;;;;;;5036519;28;20025;-28
2022/01/03 05:29:17;;;;;;;2.92;1.90;;;;;;;;;;5036183;28;20029;-28
2022/01/03 05:31:44;;;;;;;3.78;2.10;;;;;;;;;;5036372;28;20445;-28
2022/01/03 05:34:10;;;;;;;2.63;1.83;;;;;;;;;;5036046;28;20112;-28
2022/01/03 05:36:36;;;;;;;3.08;2.03;;;;;;;;;;5036080;28;20395;-28
2022/01/03 05:39:03;;;;;;;3.60;1.55;;;;;;;;;;5036272;28;20090;-28
2022/01/03 05:41:29;;;;;;;3.08;1.90;;;;;;;;;;5036171;28;20056;-28
2022/01/03 05:43:56;;;;;;;3.53;1.77;;;;;;;;;;5036081;28;20044;-28
2022/01/03 05:46:23;;;;;;;3.30;2.30;;;;;;;;;;5036187;28;20021;-28
2022/01/03 05:48:49;;;;;;;2.60;1.92;;;;;;;;;;5035876;28;20029;-28
2022/01/03 05:51:15;;;;;;;3.38;1.90;;;;;;;;;;5035775;28;20087;-28
2022/01/03 05:53:41;;;;;;;3.80;1.98;;;;;;;;;;5035529;28;20095;-28
2022/01/03 05:56:08;;;;;;;3.58;2.53;;;;;;;;;;5035674;28;20049;-29
2022/01/03 05:58:34;;;;;;;4.35;2.55;;;;;;;;;;5018208;28;20053;-28
2022/01/03 06:03:43;;;;;;;9.30;2.65;;;;;;;;;;5176899;22;20396;-26
2022/01/03 06:08:36;;;;;;;12.05;2.35;;;;;;;;;;4996378;28;20045;-26
2022/01/03 06:11:02;;;;;;;8.63;2.30;;;;;;;;;;4996025;28;20026;-26
2022/01/03 06:13:28;;;;;;;4.32;2.13;;;;;;;;;;4996054;28;20057;-26
2022/01/03 06:15:54;;;;;;;2.45;1.90;;;;;;;;;;4996000;28;20038;-26
2022/01/03 06:18:21;;;;;;;3.08;1.60;;;;;;;;;;4995822;28;20030;-26
2022/01/03 06:20:48;;;;;;;5.30;1.80;;;;;;;;;;4995851;28;20034;-26
2022/01/03 06:23:15;;;;;;;7.90;2.22;;;;;;;;;;4995934;28;20402;-26
2022/01/03 06:25:41;;;;;;;5.50;2.20;;;;;;;;;;4996058;28;20064;-26
2022/01/03 06:28:09;;;;;;;3.65;1.88;;;;;;;;;;4995652;28;20029;-26
2022/01/03 06:30:35;;;;;;;10.43;2.47;;;;;;;;;;4995661;28;20030;-26
2022/01/03 06:33:02;;;;;;;9.32;2.88;;;;;;;;;;4996083;28;20030;-26
2022/01/03 06:35:29;;;;;;;6.60;2.13;;;;;;;;;;4995762;28;20022;-26
2022/01/03 06:37:55;;;;;;;10.02;2.33;;;;;;;;;;4995552;28;20030;-26
2022/01/03 06:40:21;;;;;;;30.10;4.30;;;;;;;;;;4995775;28;20034;-26
2022/01/03 06:42:47;;;;;;;8.90;2.55;;;;;;;;;;4995447;28;20026;-26
2022/01/03 06:45:16;;;;;;;9.52;3.55;;;;;;;;;;4995334;28;20030;-26
2022/01/03 06:47:42;;;;;;;9.55;2.15;;;;;;;;;;4995292;28;20041;-26
2022/01/03 06:50:09;;;;;;;8.00;2.40;;;;;;;;;;4995369;28;20034;-26
2022/01/03 06:52:35;;;;;;;6.13;2.38;;;;;;;;;;4995303;28;20036;-26
2022/01/03 06:55:01;;;;;;;5.72;2.33;;;;;;;;;;4995038;28;20038;-26
2022/01/03 06:57:27;;;;;;;12.02;2.58;;;;;;;;;;4995182;28;20467;-26
2022/01/03 06:59:53;;;;;;;7.60;2.20;;;;;;;;;;4995126;28;20098;-26
2022/01/03 07:02:21;;;;;;;4.88;2.33;;;;;;;;;;4995010;28;20058;-26
2022/01/03 07:04:47;;;;;;;3.70;1.90;;;;;;;;;;4995695;28;20030;-26
2022/01/03 07:07:13;;;;;;;6.43;2.40;;;;;;;;;;4995073;28;20033;-26
2022/01/03 07:09:39;;;;;;;3.33;1.73;;;;;;;;;;4995035;28;20117;-26
2022/01/03 07:12:06;;;;;;;10.45;2.00;;;;;;;;;;4995011;28;20018;-26
2022/01/03 07:19:47;;;;;;;8.25;2.70;;;;;;;;;;4995528;28;20042;-26
2022/01/03 07:22:13;;;;;;;6.07;2.65;;;;;;;;;;4995294;28;20081;-26
2022/01/03 07:24:40;;;;;;;6.13;2.28;;;;;;;;;;4995206;28;20049;-27
2022/01/03 07:27:08;;;;;;;6.78;2.50;;;;;;;;;;4995146;28;20026;-26
2022/01/03 07:29:34;;;;;;;5.57;2.10;;;;;;;;;;4995451;28;20113;-26
2022/01/03 07:32:01;;;;;;;9.82;3.72;;;;;;;;;;4996486;28;20038;-26
2022/01/03 07:34:27;;;;;;;9.73;2.35;;;;;;;;;;4999146;28;20034;-26
2022/01/03 07:36:53;;;;;;;6.30;2.28;;;;;;;;;;4999172;28;20098;-26
2022/01/03 07:39:20;;;;;;;8.52;2.28;;;;;;;;;;4998772;28;20410;-26
2022/01/03 07:41:46;;;;;;;14.32;2.63;;;;;;;;;;4998611;28;20095;-26
2022/01/03 07:44:12;;;;;;;7.53;2.13;;;;;;;;;;4998654;28;20022;-26
2022/01/03 07:46:38;;;;;;;7.78;1.90;;;;;;;;;;4998860;28;20488;-26
2022/01/03 07:49:05;;;;;;;6.80;2.28;;;;;;;;;;4998914;28;20038;-26
2022/01/03 07:51:31;;;;;;;7.72;2.30;;;;;;;;;;4998298;28;20030;-27
2022/01/03 07:53:58;;;;;;;7.40;1.88;;;;;;;;;;4998319;28;20491;-26
2022/01/03 07:56:24;;;;;;;10.38;3.08;;;;;;;;;;4998633;28;20177;-27
2022/01/03 07:58:50;;;;;;;5.30;2.55;;;;;;;;;;4998453;28;20022;-27
2022/01/03 08:01:16;;;;;;;11.23;3.08;;;;;;;;;;4998341;28;20437;-27
2022/01/03 08:03:42;;;;;;;7.68;2.55;;;;;;;;;;4997358;28;20062;-27
2022/01/03 08:06:09;;;;;;;22.50;3.72;;;;;;;;;;4997136;28;20369;-27
2022/01/03 08:08:36;;;;;;;20.27;3.30;;;;;;;;;;4996941;28;20133;-27
2022/01/03 08:11:02;;;;;;;20.90;5.00;;;;;;;;;;4996941;28;20030;-27
2022/01/03 08:13:29;;;;;;;20.73;3.80;;;;;;;;;;4996855;28;20027;-25
2022/01/03 08:15:55;;;;;;;17.98;4.90;;;;;;;;;;4995838;28;20101;-25
2022/01/03 08:18:21;;;;;;;15.63;4.18;;;;;;;;;;4996870;28;20034;-25
2022/01/03 08:20:47;;;;;;;22.13;3.50;;;;;;;;;;4997136;28;20134;-26
2022/01/03 08:23:14;;;;;;;21.98;3.50;;;;;;;;;;4996896;28;20109;-26
2022/01/03 08:25:40;;;;;;;12.13;3.50;;;;;;;;;;4996746;28;20053;-25
2022/01/03 08:28:10;;;;;;;18.42;3.85;;;;;;;;;;4996950;28;20034;-26
2022/01/03 08:30:36;;;;;;;6.93;3.05;;;;;;;;;;4996961;28;20437;-26
2022/01/03 08:33:03;;;;;;;14.27;2.63;;;;;;;;;;4996508;28;20446;-26
2022/01/03 08:35:30;;;;;;;10.23;3.40;;;;;;;;;;4996723;28;20349;-26
2022/01/03 08:37:56;;;;;;;7.85;3.03;;;;;;;;;;4996455;28;20023;-26
2022/01/03 08:40:23;;;;;;;7.70;3.05;;;;;;;;;;4996430;28;20057;-27
2022/01/03 08:42:51;;;;;;;13.50;3.53;;;;;;;;;;4996400;28;20054;-27
2022/01/03 08:45:17;;;;;;;12.27;3.15;;;;;;;;;;4996546;28;20061;-27
2022/01/03 08:47:43;;;;;;;13.30;3.63;;;;;;;;;;4996315;28;20026;-26
2022/01/03 08:50:10;;;;;;;13.95;3.25;;;;;;;;;;4996340;28;20046;-26
2022/01/03 08:52:37;;;;;;;18.65;2.90;;;;;;;;;;4996138;28;20045;-26
2022/01/03 08:55:04;;;;;;;10.75;3.63;;;;;;;;;;4996152;28;20030;-26
2022/01/03 08:57:30;;;;;;;10.55;2.90;;;;;;;;;;4996439;28;20102;-26
2022/01/03 08:59:56;;;;;;;17.60;2.88;;;;;;;;;;4996057;28;20030;-26
2022/01/03 09:02:22;;;;;;;7.57;2.65;;;;;;;;;;4947614;28;1404480;-26
2022/01/03 09:04:49;;;;;;;14.90;2.58;;;;;;;;;;4996315;28;20060;-26
2022/01/03 09:07:15;;;;;;;12.20;3.17;;;;;;;;;;4996108;28;20531;-26
2022/01/03 09:09:41;;;;;;;7.82;3.65;;;;;;;;;;4997076;28;20353;-26
2022/01/03 09:12:08;;;;;;;12.57;2.80;;;;;;;;;;4996973;28;20030;-26
2022/01/03 09:14:35;;;;;;;9.55;2.70;;;;;;;;;;4997171;28;20105;-26
2022/01/03 09:17:01;;;;;;;5.43;2.95;;;;;;;;;;4996830;28;20034;-26
2022/01/03 09:19:28;;;;;;;10.68;2.38;;;;;;;;;;4996860;28;20034;-26
2022/01/03 09:22:19;;;;;;;15.00;2.90;;;;;;;;;;4996902;28;20035;-26
2022/01/03 09:24:54;;;;;;;9.50;4.05;;;;;;;;;;4996224;28;20038;-26
2022/01/03 09:30:05;;;;;;;16.88;3.28;;;;;;;;;;4996746;28;20101;-26
2022/01/03 09:32:32;;;;;;;10.25;2.30;;;;;;;;;;4996628;28;20105;-26
2022/01/03 09:34:58;;;;;;;10.40;3.70;;;;;;;;;;4996421;28;20034;-26
2022/01/03 09:37:26;;;;;;;13.30;4.82;;;;;;;;;;4996399;28;20058;-26
2022/01/03 09:39:53;;;;;;;13.90;2.38;;;;;;;;;;4995448;28;20031;-26
2022/01/03 09:42:23;;;;;;;16.00;5.97;;;;;;;;;;4996392;28;20022;-26
2022/01/03 09:44:50;;;;;;;10.77;2.65;;;;;;;;;;4996367;28;20038;-26
2022/01/03 09:47:17;;;;;;;14.43;2.90;;;;;;;;;;4996574;28;20026;-26
2022/01/03 09:49:43;;;;;;;18.15;2.83;;;;;;;;;;4996617;28;20061;-26
2022/01/03 09:52:10;;;;;;;19.13;3.22;;;;;;;;;;4996347;28;20106;-26
2022/01/03 09:54:36;;;;;;;24.63;3.08;;;;;;;;;;4995224;28;20409;-26
2022/01/03 09:57:04;;;;;;;16.73;3.65;;;;;;;;;;4996038;28;20113;-26
2022/01/03 09:59:31;;;;;;;22.83;5.10;;;;;;;;;;4995930;28;20101;-26
2022/01/03 10:01:58;;;;;;;21.67;2.97;;;;;;;;;;4996049;28;20030;-26
2022/01/03 10:04:25;;;;;;;18.15;2.88;;;;;;;;;;4995865;28;20046;-26
2022/01/03 10:06:51;;;;;;;20.83;4.45;;;;;;;;;;4995993;28;20061;-26
2022/01/03 10:09:23;;;;;;;30.60;3.95;;;;;;;;;;4995670;28;20113;-26
2022/01/03 10:11:49;;;;;;;;;;;;;;;;;;4996253;28;20033;-26
2022/01/03 10:14:16;;;;;;;17.58;3.20;;;;;;;;;;4995847;28;20218;-26
2022/01/03 10:16:43;;;;;;;17.70;3.63;;;;;;;;;;4995396;28;20100;-26
2022/01/03 10:19:10;;;;;;;14.70;2.75;;;;;;;;;;4995891;28;20369;-26
2022/01/03 10:21:36;;;;;;;14.05;2.65;;;;;;;;;;4995896;28;20034;-26
2022/01/03 10:24:03;;;;;;;18.70;3.10;;;;;;;;;;4994481;28;20045;-26
2022/01/03 10:26:29;;;;;;;12.00;3.00;;;;;;;;;;4996077;28;20026;-26
2022/01/03 10:29:16;;;;;;;6.88;3.35;;;;;;;;;;4995697;28;20035;-26
2022/01/03 10:31:43;;;;;;;17.00;4.38;;;;;;;;;;4995512;28;20038;-26
2022/01/03 10:34:10;;;;;;;10.80;2.65;;;;;;;;;;4995802;28;20113;-26
2022/01/03 10:36:37;;;;;;;13.30;3.08;;;;;;;;;;4995544;28;20036;-26
2022/01/03 10:39:27;;;;;;;15.85;3.17;;;;;;;;;;4995598;28;20031;-26
2022/01/03 10:42:12;;;;;;;14.95;4.00;;;;;;;;;;4985570;28;20058;-26
2022/01/03 10:44:42;;;;;;;8.32;3.10;;;;;;;;;;4995529;28;20042;-26
2022/01/03 10:47:09;;;;;;;17.17;4.32;;;;;;;;;;4995390;28;20060;-26
2022/01/03 10:49:38;;;;;;;14.32;2.80;;;;;;;;;;4995053;28;20031;-26
2022/01/03 10:52:33;;;;;;;19.65;3.20;;;;;;;;;;4995239;28;20057;-26
2022/01/03 10:55:11;;;;;;;14.38;3.28;;;;;;;;;;4992837;28;20070;-26
2022/01/03 10:57:52;;;;;;;12.85;2.80;;;;;;;;;;4994843;28;20034;-27
2022/01/03 11:00:33;;;;;;;15.52;3.33;;;;;;;;;;4995124;28;20114;-26
2022/01/03 11:03:07;;;;;;;29.67;6.35;;;;;;;;;;4994683;28;20046;-26
2022/01/03 11:05:42;;;;;;;14.48;3.78;;;;;;;;;;4995094;28;20027;-26
2022/01/03 11:10:45;;;;;;;12.20;3.30;;;;;;;;;;4994957;28;20157;-26
2022/01/03 11:13:15;;;;;;;18.73;4.68;;;;;;;;;;4995085;28;20322;-26
2022/01/03 11:15:42;;;;;;;9.18;2.88;;;;;;;;;;4995013;28;20030;-26
2022/01/03 11:18:27;;;;;;;16.67;3.17;;;;;;;;;;4994790;28;20041;-26
2022/01/03 11:21:13;;;;;;;11.68;3.65;;;;;;;;;;4995015;28;20361;-26
2022/01/03 11:23:40;;;;;;;11.07;2.88;;;;;;;;;;4995003;28;20118;-26
2022/01/03 11:26:19;;;;;;;16.83;2.92;;;;;;;;;;4995103;28;20034;-26
2022/01/03 11:28:47;;;;;;;12.40;3.40;;;;;;;;;;4994901;28;20022;-26
2022/01/03 11:31:14;;;;;;;13.40;3.10;;;;;;;;;;4994979;28;20041;-26
2022/01/03 11:33:41;;;;;;;11.98;3.47;;;;;;;;;;4994454;28;20042;-26
2022/01/03 11:36:08;;;;;;;13.98;4.30;;;;;;;;;;4994858;28;20030;-26
2022/01/03 11:38:39;;;;;;;10.13;3.35;;;;;;;;;;4994599;28;20102;-26
2022/01/03 11:41:08;;;;;;;12.35;3.90;;;;;;;;;;4993638;28;20487;-26
2022/01/03 11:43:35;;;;;;;11.15;2.67;;;;;;;;;;4994348;28;20030;-26
2022/01/03 11:46:02;;;;;;;10.75;2.78;;;;;;;;;;4993482;28;20042;-26
2022/01/03 11:48:29;;;;;;;16.00;4.88;;;;;;;;;;4995308;28;20077;-26
2022/01/03 11:50:56;;;;;;;11.63;2.78;;;;;;;;;;4994358;28;20026;-26
2022/01/03 11:53:23;;;;;;;15.32;3.83;;;;;;;;;;4994321;28;20033;-26
2022/01/03 11:55:55;;;;;;;18.08;3.83;;;;;;;;;;4994399;28;20027;-26
2022/01/03 11:58:46;;;;;;;13.65;4.15;;;;;;;;;;4994416;28;20030;-26
2022/01/03 12:04:00;;;;;;;15.63;4.97;;;;;;;;;;4994195;28;20066;-26
2022/01/03 12:06:27;;;;;;;14.27;3.15;;;;;;;;;;4994260;28;20031;-26
2022/01/03 12:08:55;;;;;;;19.90;3.72;;;;;;;;;;4994394;28;20108;-26
2022/01/03 12:11:25;;;;;;;23.20;3.67;;;;;;;;;;4994403;28;20132;-26
2022/01/03 12:13:56;;;;;;;11.60;3.27;;;;;;;;;;4994286;28;20050;-26
2022/01/03 12:16:42;;;;;;;15.50;3.92;;;;;;;;;;4994438;28;20029;-26
2022/01/03 12:19:10;;;;;;;13.15;3.25;;;;;;;;;;4997383;28;20353;-26
2022/01/03 12:21:48;;;;;;;11.52;3.53;;;;;;;;;;4998230;28;20030;-26
2022/01/03 12:24:27;;;;;;;13.32;3.20;;;;;;;;;;4998331;28;20034;-26
2022/01/03 12:27:13;;;;;;;15.52;3.50;;;;;;;;;;4998638;28;20342;-26
2022/01/03 12:29:55;;;;;;;13.82;4.15;;;;;;;;;;4984788;28;20046;-26
2022/01/03 12:32:38;;;;;;;11.40;3.22;;;;;;;;;;4997645;28;20034;-26
2022/01/03 12:35:19;;;;;;;18.08;3.20;;;;;;;;;;4997792;28;20022;-26
2022/01/03 12:37:48;;;;;;;;;;;;;;;;;;4998300;28;20102;-26
2022/01/03 12:40:17;;;;;;;14.60;3.60;;;;;;;;;;4997780;28;20320;-26
2022/01/03 12:42:51;;;;;;;9.93;3.13;;;;;;;;;;4997804;28;20049;-26
2022/01/03 12:45:29;;;;;;;11.40;3.05;;;;;;;;;;4997521;28;20042;-26
2022/01/03 12:48:18;;;;;;;19.88;4.32;;;;;;;;;;4998034;28;20081;-26
2022/01/03 12:50:47;;;;;;;18.23;4.10;;;;;;;;;;4997531;28;20044;-26
2022/01/03 12:53:28;;;;;;;14.93;2.95;;;;;;;;;;4997500;28;20033;-26
2022/01/03 12:56:01;;;;;;;21.55;6.03;;;;;;;;;;4997366;28;20073;-27
2022/01/03 12:58:27;;;;;;;21.20;4.40;;;;;;;;;;4997716;28;20468;-26
2022/01/03 13:01:21;;;;;;;18.15;3.05;;;;;;;;;;4997519;28;20027;-27
2022/01/03 13:03:50;;;;;;;12.73;4.15;;;;;;;;;;4996942;28;20069;-27
2022/01/03 13:06:20;;;;;;;16.08;3.33;;;;;;;;;;4997157;28;20049;-27
2022/01/03 13:08:52;;;;;;;20.57;3.93;;;;;;;;;;4997243;28;20030;-26
2022/01/03 13:11:20;;;;;;;16.33;5.18;;;;;;;;;;4997107;28;20041;-26
2022/01/03 13:13:51;;;;;;;16.90;4.07;;;;;;;;;;4996959;28;20022;-26
2022/01/03 13:16:23;;;;;;;13.23;3.57;;;;;;;;;;4997562;28;20342;-27
2022/01/03 13:18:50;;;;;;;20.13;3.72;;;;;;;;;;4997146;28;20089;-27
2022/01/03 13:21:17;;;;;;;22.13;5.47;;;;;;;;;;4996983;28;20050;-27
2022/01/03 13:24:00;;;;;;;20.92;6.18;;;;;;;;;;4996760;28;20465;-26
2022/01/03 13:26:28;;;;;;;24.23;4.30;;;;;;;;;;4996889;28;20121;-27
2022/01/03 13:28:56;;;;;;;25.60;4.43;;;;;;;;;;4996061;28;20026;-26
2022/01/03 13:31:22;;;;;;;16.88;3.90;;;;;;;;;;4996858;28;20470;-27
2022/01/03 13:34:01;;;;;;;23.30;3.67;;;;;;;;;;4997056;28;20041;-27
2022/01/03 13:36:34;;;;;;;26.17;4.57;;;;;;;;;;4997380;28;20101;-27
2022/01/03 13:39:07;;;;;;;17.77;3.85;;;;;;;;;;4996574;28;20193;-27
2022/01/03 13:41:37;;;;;;;13.73;3.92;;;;;;;;;;4995553;28;20076;-27
2022/01/03 13:44:04;;;;;;;8.00;3.00;;;;;;;;;;4996403;28;20110;-27
2022/01/03 13:49:22;;;;;;;20.30;4.50;;;;;;;;;;4996589;28;20041;-27
2022/01/03 13:51:58;;;;;;;19.83;3.65;;;;;;;;;;4996673;28;20026;-27
2022/01/03 13:54:34;;;;;;;18.83;3.10;;;;;;;;;;4996048;28;20037;-26
2022/01/03 13:57:02;;;;;;;17.80;5.00;;;;;;;;;;4996327;28;20022;-26
2022/01/03 13:59:33;;;;;;;30.13;3.75;;;;;;;;;;4996237;28;20022;-26
2022/01/03 14:02:02;;;;;;;22.38;4.00;;;;;;;;;;4995790;28;20102;-26
2022/01/03 14:04:30;;;;;;;23.98;4.65;;;;;;;;;;4995885;28;20045;-26
2022/01/03 14:07:06;;;;;;;36.45;4.75;;;;;;;;;;4995865;28;20457;-26
2022/01/03 14:09:58;;;;;;;18.08;3.72;;;;;;;;;;4995772;28;20105;-26
2022/01/03 14:12:28;;;;;;;30.63;5.20;;;;;;;;;;4995975;28;20369;-26
2022/01/03 14:14:55;;;;;;;27.13;4.30;;;;;;;;;;4996067;28;20034;-26
2022/01/03 14:17:22;;;;;;;25.25;4.43;;;;;;;;;;4994587;28;20165;-26
2022/01/03 14:20:18;;;;;;;28.63;6.30;;;;;;;;;;4995507;28;20026;-26
2022/01/03 14:22:45;;;;;;;17.58;3.75;;;;;;;;;;4979450;28;20134;-26
2022/01/03 14:25:15;;;;;;;30.58;4.35;;;;;;;;;;4995840;28;20042;-26
2022/01/03 14:27:41;;;;;;;37.83;4.53;;;;;;;;;;4996043;28;20105;-26
2022/01/03 14:30:13;;;;;;;26.35;4.80;;;;;;;;;;4996040;28;20447;-26
2022/01/03 14:32:40;;;;;;;28.75;4.35;;;;;;;;;;4995374;28;20109;-26
2022/01/03 14:35:07;;;;;;;33.50;4.80;;;;;;;;;;4995400;28;20061;-26
2022/01/03 14:37:35;;;;;;;18.35;3.55;;;;;;;;;;4995673;28;20420;-26
2022/01/03 14:40:03;;;;;;;29.25;3.92;;;;;;;;;;4995303;28;20044;-26
2022/01/03 14:42:31;;;;;;;17.33;4.28;;;;;;;;;;4995543;28;20034;-26
2022/01/03 14:45:12;;;;;;;24.35;5.18;;;;;;;;;;4995152;28;20054;-26
2022/01/03 14:47:39;;;;;;;19.30;3.90;;;;;;;;;;4995471;28;20409;-26
2022/01/03 14:50:06;;;;;;;15.43;3.83;;;;;;;;;;4995155;28;20035;-26
2022/01/03 14:52:36;;;;;;;22.15;3.58;;;;;;;;;;4995256;28;20109;-27
2022/01/03 14:55:03;;;;;;;22.40;5.20;;;;;;;;;;4995394;28;20034;-27
2022/01/03 14:57:30;;;;;;;17.85;5.85;;;;;;;;;;4995025;28;20088;-27
2022/01/03 14:59:58;;;;;;;12.82;3.42;;;;;;;;;;4995006;28;20425;-27
2022/01/03 15:02:24;;;;;;;18.10;4.10;;;;;;;;;;4994643;28;20058;-27
2022/01/03 15:04:50;;;;;;;14.55;3.70;;;;;;;;;;4994998;28;20033;-27
2022/01/03 15:07:17;;;;;;;21.13;4.15;;;;;;;;;;4994926;28;20558;-26
2022/01/03 15:09:44;;;;;;;21.67;3.38;;;;;;;;;;4995691;28;20047;-27